createdAt,value
2023-05-14T00:00:32.207Z,11.04
2023-05-14T00:02:58.621Z,11.00
2023-05-14T00:05:25.244Z,11.06
2023-05-14T00:07:51.660Z,11.02
2023-05-14T00:10:18.182Z,11.06
2023-05-14T00:12:44.601Z,11.08
2023-05-14T00:15:11.008Z,11.06
2023-05-14T00:17:37.766Z,11.13
2023-05-14T00:20:05.756Z,11.09
2023-05-14T00:22:32.069Z,11.08
2023-05-14T00:24:58.481Z,11.18
2023-05-14T00:27:24.817Z,11.17
2023-05-14T00:29:51.175Z,11.15
2023-05-14T00:32:17.510Z,11.26
2023-05-14T00:34:43.821Z,11.20
2023-05-14T00:37:10.171Z,11.16
2023-05-14T00:39:36.536Z,11.25
2023-05-14T00:42:02.923Z,11.22
2023-05-14T00:44:29.315Z,11.13
2023-05-14T00:46:55.746Z,11.15
2023-05-14T00:49:22.401Z,11.08
2023-05-14T00:51:48.970Z,11.05
2023-05-14T00:54:19.732Z,11.04
2023-05-14T00:56:46.871Z,11.00
2023-05-14T00:59:13.976Z,11.01
2023-05-14T01:01:40.492Z,10.87
2023-05-14T01:04:07.654Z,10.94
2023-05-14T01:06:43.292Z,10.93
2023-05-14T01:09:22.917Z,10.83
2023-05-14T01:12:07.599Z,10.90
2023-05-14T01:14:58.850Z,10.84
2023-05-14T01:17:28.452Z,10.68
2023-05-14T01:19:55.317Z,10.60
2023-05-14T01:22:21.681Z,10.49
2023-05-14T01:24:48.041Z,10.49
2023-05-14T01:27:35.516Z,10.51
2023-05-14T01:30:19.294Z,10.56
2023-05-14T01:32:50.129Z,10.57
2023-05-14T01:35:18.237Z,10.51
2023-05-14T01:37:47.092Z,10.52
2023-05-14T01:40:13.655Z,10.44
2023-05-14T01:42:41.029Z,10.44
2023-05-14T01:45:08.514Z,10.44
2023-05-14T01:47:34.873Z,10.34
2023-05-14T01:50:01.266Z,10.33
2023-05-14T01:52:27.624Z,10.30
2023-05-14T01:54:53.953Z,10.27
2023-05-14T01:57:20.301Z,10.26
2023-05-14T01:59:46.676Z,10.18
2023-05-14T02:02:13.035Z,10.21
2023-05-14T02:04:39.428Z,10.23
2023-05-14T02:07:05.756Z,10.16
2023-05-14T02:09:32.086Z,10.10
2023-05-14T02:11:58.456Z,10.07
2023-05-14T02:14:24.829Z,10.03
2023-05-14T02:16:51.171Z,9.94
2023-05-14T02:19:17.886Z,9.97
2023-05-14T02:21:44.611Z,9.95
2023-05-14T02:24:10.986Z,9.84
2023-05-14T02:26:37.300Z,9.83
2023-05-14T02:29:03.671Z,9.73
2023-05-14T02:31:30.020Z,9.75
2023-05-14T02:33:56.426Z,9.71
2023-05-14T02:36:22.788Z,9.68
2023-05-14T02:38:49.101Z,9.71
2023-05-14T02:41:15.434Z,9.61
2023-05-14T02:43:41.804Z,9.51
2023-05-14T02:46:08.178Z,9.41
2023-05-14T02:48:34.544Z,9.32
2023-05-14T02:51:00.969Z,9.33
2023-05-14T02:53:27.359Z,9.24
2023-05-14T02:55:53.818Z,9.19
2023-05-14T02:58:20.131Z,9.18
2023-05-14T03:00:52.249Z,9.17
2023-05-14T03:03:19.782Z,9.08
2023-05-14T03:05:46.456Z,9.10
2023-05-14T03:08:12.807Z,9.13
2023-05-14T03:10:39.175Z,9.08
2023-05-14T03:13:05.497Z,9.04
2023-05-14T03:15:31.852Z,9.05
2023-05-14T03:17:58.256Z,9.05
2023-05-14T03:20:25.055Z,8.96
2023-05-14T03:22:51.837Z,8.99
2023-05-14T03:25:18.235Z,8.93
2023-05-14T03:27:44.552Z,8.98
2023-05-14T03:30:11.506Z,8.90
2023-05-14T03:32:37.919Z,8.90
2023-05-14T03:35:04.677Z,8.84
2023-05-14T03:37:31.070Z,8.83
2023-05-14T03:39:57.378Z,8.85
2023-05-14T03:42:23.741Z,8.84
2023-05-14T03:44:50.056Z,8.82
2023-05-14T03:47:16.373Z,8.83
2023-05-14T03:49:42.691Z,8.70
2023-05-14T03:52:09.072Z,8.79
2023-05-14T03:54:35.417Z,8.63
2023-05-14T03:57:01.825Z,8.61
2023-05-14T03:59:28.151Z,8.78
2023-05-14T04:01:54.505Z,8.79
2023-05-14T04:04:20.861Z,8.74
2023-05-14T04:06:47.231Z,8.74
2023-05-14T04:09:13.581Z,8.82
2023-05-14T04:11:39.945Z,8.81
2023-05-14T04:14:06.449Z,8.89
2023-05-14T04:16:32.815Z,8.79
2023-05-14T04:19:02.315Z,8.86
2023-05-14T04:21:28.698Z,8.84
2023-05-14T04:23:55.053Z,8.90
2023-05-14T04:26:21.382Z,8.95
2023-05-14T04:28:47.804Z,8.97
2023-05-14T04:31:15.909Z,9.01
2023-05-14T04:33:42.294Z,9.10
2023-05-14T04:36:08.840Z,9.14
2023-05-14T04:38:35.169Z,9.24
2023-05-14T04:41:01.488Z,9.30
2023-05-14T04:43:27.814Z,9.42
2023-05-14T04:45:54.196Z,9.43
2023-05-14T04:48:20.521Z,9.47
2023-05-14T04:50:46.841Z,9.55
2023-05-14T04:53:13.229Z,9.52
2023-05-14T04:55:39.613Z,9.73
2023-05-14T04:58:05.952Z,9.90
2023-05-14T05:00:32.370Z,9.90
2023-05-14T05:02:58.888Z,10.04
2023-05-14T05:05:25.466Z,10.25
2023-05-14T05:07:51.835Z,10.31
2023-05-14T05:10:18.249Z,10.41
2023-05-14T05:12:44.564Z,10.48
2023-05-14T05:15:11.127Z,10.67
2023-05-14T05:17:37.532Z,10.73
2023-05-14T05:20:04.364Z,10.93
2023-05-14T05:22:30.972Z,11.15
2023-05-14T05:24:57.488Z,11.43
2023-05-14T05:27:23.827Z,11.76
2023-05-14T05:29:50.179Z,12.05
2023-05-14T05:32:16.528Z,12.38
2023-05-14T05:34:42.898Z,12.74
2023-05-14T05:37:09.274Z,13.11
2023-05-14T05:39:35.631Z,13.57
2023-05-14T05:42:02.486Z,13.86
2023-05-14T05:44:28.825Z,14.23
2023-05-14T05:46:55.174Z,14.58
2023-05-14T05:49:21.583Z,14.78
2023-05-14T05:51:47.957Z,14.96
2023-05-14T05:54:14.281Z,15.16
2023-05-14T05:56:40.768Z,15.46
2023-05-14T05:59:07.118Z,15.81
2023-05-14T06:01:33.568Z,16.21
2023-05-14T06:03:59.865Z,16.64
2023-05-14T06:06:26.195Z,16.85
2023-05-14T06:08:52.516Z,16.96
2023-05-14T06:11:18.886Z,17.14
2023-05-14T06:13:45.206Z,17.43
2023-05-14T06:16:11.566Z,17.70
2023-05-14T06:18:38.074Z,17.62
2023-05-14T06:21:04.512Z,17.52
2023-05-14T06:23:30.896Z,17.87
2023-05-14T06:25:57.217Z,17.89
2023-05-14T06:28:23.597Z,17.79
2023-05-14T06:30:50.195Z,17.66
2023-05-14T06:33:17.415Z,17.42
2023-05-14T06:36:05.243Z,17.43
2023-05-14T06:38:31.652Z,17.13
2023-05-14T06:40:57.990Z,17.01
2023-05-14T06:43:24.355Z,16.92
2023-05-14T06:45:51.817Z,16.73
2023-05-14T06:48:19.013Z,16.74
2023-05-14T06:50:46.522Z,16.66
2023-05-14T06:53:13.196Z,16.85
2023-05-14T06:55:39.835Z,17.05
2023-05-14T06:58:07.481Z,17.54
2023-05-14T07:00:33.888Z,17.75
2023-05-14T07:03:00.352Z,17.96
2023-05-14T07:05:26.760Z,18.14
2023-05-14T07:07:53.065Z,18.52
2023-05-14T07:10:19.439Z,18.77
2023-05-14T07:12:45.860Z,18.89
2023-05-14T07:15:12.192Z,18.91
2023-05-14T07:17:38.632Z,19.25
2023-05-14T07:20:05.575Z,19.41
2023-05-14T07:22:31.929Z,19.74
2023-05-14T07:24:58.288Z,20.00
2023-05-14T07:27:24.635Z,20.07
2023-05-14T07:29:51.108Z,19.99
2023-05-14T07:32:17.466Z,19.87
2023-05-14T07:34:43.846Z,19.62
2023-05-14T07:37:10.301Z,19.77
2023-05-14T07:39:36.652Z,20.05
2023-05-14T07:42:04.575Z,20.43
2023-05-14T07:44:30.894Z,20.88
2023-05-14T07:46:57.320Z,21.60
2023-05-14T07:49:23.674Z,22.30
2023-05-14T07:51:50.023Z,22.82
2023-05-14T07:54:16.832Z,22.99
2023-05-14T07:56:43.427Z,23.14
2023-05-14T07:59:09.815Z,23.44
2023-05-14T08:01:37.825Z,23.74
2023-05-14T08:04:05.738Z,23.81
2023-05-14T08:06:32.184Z,24.11
2023-05-14T08:08:58.724Z,24.46
2023-05-14T08:11:25.124Z,24.59
2023-05-14T08:13:51.488Z,24.62
2023-05-14T08:16:17.924Z,24.64
2023-05-14T08:18:44.396Z,24.62
2023-05-14T08:21:10.761Z,24.72
2023-05-14T08:23:37.110Z,24.77
2023-05-14T08:26:03.488Z,25.10
2023-05-14T08:28:29.800Z,25.39
2023-05-14T08:30:56.171Z,25.84
2023-05-14T08:33:22.523Z,26.31
2023-05-14T08:35:51.604Z,26.46
2023-05-14T08:38:17.959Z,26.34
2023-05-14T08:40:49.172Z,26.53
2023-05-14T08:43:20.132Z,26.48
2023-05-14T08:45:49.517Z,26.52
2023-05-14T08:48:18.996Z,26.60
2023-05-14T08:50:45.539Z,26.73
2023-05-14T08:53:11.848Z,26.74
2023-05-14T08:55:38.189Z,26.37
2023-05-14T08:58:04.555Z,26.28
2023-05-14T09:00:30.935Z,26.80
2023-05-14T09:02:58.941Z,27.42
2023-05-14T09:05:25.690Z,27.83
2023-05-14T09:07:52.074Z,27.90
2023-05-14T09:10:18.760Z,28.12
2023-05-14T09:12:45.109Z,28.23
2023-05-14T09:15:11.485Z,28.00
2023-05-14T09:17:37.921Z,27.71
2023-05-14T09:20:04.832Z,27.63
2023-05-14T09:22:31.221Z,27.65
2023-05-14T09:25:08.761Z,26.95
2023-05-14T09:27:36.080Z,26.43
2023-05-14T09:30:13.147Z,26.30
2023-05-14T09:32:41.860Z,26.28
2023-05-14T09:35:18.071Z,26.31
2023-05-14T09:37:49.892Z,26.47
2023-05-14T09:40:17.354Z,26.71
2023-05-14T09:42:43.719Z,26.65
2023-05-14T09:45:10.807Z,26.46
2023-05-14T09:47:39.133Z,26.38
2023-05-14T09:50:06.634Z,26.12
2023-05-14T09:52:33.069Z,25.67
2023-05-14T09:55:00.678Z,25.27
2023-05-14T09:57:27.362Z,25.04
2023-05-14T09:59:54.036Z,25.08
2023-05-14T10:02:25.756Z,25.25
2023-05-14T10:04:54.290Z,25.59
2023-05-14T10:07:29.120Z,25.91
2023-05-14T10:10:01.800Z,25.74
2023-05-14T10:12:32.422Z,25.32
2023-05-14T10:15:06.794Z,24.95
2023-05-14T10:17:36.158Z,24.87
2023-05-14T10:20:03.465Z,24.92
2023-05-14T10:22:33.698Z,24.60
2023-05-14T10:25:00.833Z,24.55
2023-05-14T10:27:27.561Z,24.44
2023-05-14T10:29:55.622Z,24.53
2023-05-14T10:32:23.392Z,24.82
2023-05-14T10:34:49.820Z,24.69
2023-05-14T10:37:19.434Z,24.57
2023-05-14T10:39:48.091Z,24.73
2023-05-14T10:42:18.819Z,25.03
2023-05-14T10:44:54.473Z,25.18
2023-05-14T10:47:21.855Z,24.95
2023-05-14T10:49:49.097Z,24.95
2023-05-14T10:52:19.182Z,25.07
2023-05-14T10:55:02.717Z,25.12
2023-05-14T10:57:31.988Z,25.13
2023-05-14T11:00:00.257Z,25.01
2023-05-14T11:02:27.647Z,25.09
2023-05-14T11:04:59.614Z,25.05
2023-05-14T11:07:40.212Z,24.95
2023-05-14T11:10:13.769Z,24.88
2023-05-14T11:12:42.110Z,24.57
2023-05-14T11:15:10.972Z,24.65
2023-05-14T11:17:38.586Z,24.74
2023-05-14T11:20:05.617Z,24.77
2023-05-14T11:22:32.224Z,24.92
2023-05-14T11:24:58.580Z,25.12
2023-05-14T11:27:25.003Z,25.17
2023-05-14T11:29:51.411Z,25.12
2023-05-14T11:32:19.024Z,25.12
2023-05-14T11:34:46.447Z,25.31
2023-05-14T11:37:15.383Z,25.53
2023-05-14T11:39:50.607Z,25.68
2023-05-14T11:42:17.023Z,25.56
2023-05-14T11:44:43.525Z,25.59
2023-05-14T11:47:11.431Z,25.62
2023-05-14T11:49:38.168Z,25.40
2023-05-14T11:52:06.575Z,25.30
2023-05-14T11:54:34.211Z,25.20
2023-05-14T11:57:07.105Z,25.12
2023-05-14T11:59:33.567Z,25.21
2023-05-14T12:02:00.144Z,25.21
2023-05-14T12:04:26.664Z,25.11
2023-05-14T12:06:53.252Z,25.09
2023-05-14T12:09:21.228Z,24.96
2023-05-14T12:11:48.958Z,25.03
2023-05-14T12:14:17.339Z,24.70
2023-05-14T12:16:44.789Z,24.65
2023-05-14T12:19:12.284Z,24.63
2023-05-14T12:21:38.926Z,24.79
2023-05-14T12:24:05.744Z,24.91
2023-05-14T12:26:34.918Z,24.88
2023-05-14T12:29:03.069Z,25.00
2023-05-14T12:31:30.621Z,25.03
2023-05-14T12:33:57.379Z,25.14
2023-05-14T12:36:24.124Z,25.25
2023-05-14T12:38:50.786Z,25.16
2023-05-14T12:41:17.982Z,25.01
2023-05-14T12:43:44.775Z,25.01
2023-05-14T12:46:11.253Z,25.09
2023-05-14T12:48:37.592Z,25.12
2023-05-14T12:51:03.980Z,24.93
2023-05-14T12:53:30.322Z,25.10
2023-05-14T12:55:56.728Z,25.13
2023-05-14T12:58:23.150Z,25.34
2023-05-14T13:00:49.501Z,25.33
2023-05-14T13:03:16.076Z,25.39
2023-05-14T13:05:42.446Z,25.46
2023-05-14T13:08:09.611Z,25.53
2023-05-14T13:10:35.991Z,25.57
2023-05-14T13:13:02.386Z,25.63
2023-05-14T13:15:28.777Z,25.48
2023-05-14T13:17:55.209Z,25.20
2023-05-14T13:20:21.581Z,25.14
2023-05-14T13:22:47.969Z,25.11
2023-05-14T13:25:14.342Z,25.04
2023-05-14T13:27:40.725Z,25.02
2023-05-14T13:30:08.616Z,25.14
2023-05-14T13:32:35.012Z,25.35
2023-05-14T13:35:01.438Z,25.46
2023-05-14T13:37:28.298Z,25.58
2023-05-14T13:39:54.764Z,25.66
2023-05-14T13:42:21.119Z,25.76
2023-05-14T13:44:47.453Z,25.80
2023-05-14T13:47:13.856Z,25.66
2023-05-14T13:49:40.185Z,25.33
2023-05-14T13:52:06.782Z,24.97
2023-05-14T13:54:33.103Z,24.78
2023-05-14T13:56:59.456Z,24.60
2023-05-14T13:59:25.965Z,24.47
2023-05-14T14:01:52.353Z,24.24
2023-05-14T14:04:18.787Z,23.96
2023-05-14T14:06:45.327Z,23.85
2023-05-14T14:09:11.725Z,23.84
2023-05-14T14:11:38.038Z,23.89
2023-05-14T14:14:04.377Z,23.89
2023-05-14T14:16:30.794Z,23.83
2023-05-14T14:18:57.256Z,23.72
2023-05-14T14:21:23.865Z,23.93
2023-05-14T14:23:50.274Z,24.06
2023-05-14T14:26:16.654Z,24.04
2023-05-14T14:28:43.026Z,23.76
2023-05-14T14:31:09.430Z,23.64
2023-05-14T14:33:35.898Z,23.58
2023-05-14T14:36:02.216Z,23.51
2023-05-14T14:38:28.540Z,23.58
2023-05-14T14:40:54.916Z,23.52
2023-05-14T14:43:21.294Z,23.53
2023-05-14T14:45:49.042Z,23.54
2023-05-14T14:48:26.404Z,23.60
2023-05-14T14:50:53.325Z,23.58
2023-05-14T14:53:20.906Z,23.37
2023-05-14T14:55:48.329Z,23.36
2023-05-14T14:58:14.826Z,22.99
2023-05-14T15:00:41.226Z,22.94
2023-05-14T15:03:08.163Z,22.94
2023-05-14T15:05:34.612Z,22.69
2023-05-14T15:08:01.117Z,22.55
2023-05-14T15:10:28.238Z,22.40
2023-05-14T15:12:58.018Z,22.27
2023-05-14T15:15:25.241Z,22.19
2023-05-14T15:17:52.191Z,22.26
2023-05-14T15:20:18.618Z,22.30
2023-05-14T15:22:45.116Z,22.33
2023-05-14T15:25:11.459Z,22.33
2023-05-14T15:27:37.803Z,22.28
2023-05-14T15:30:04.763Z,22.33
2023-05-14T15:32:31.194Z,22.35
2023-05-14T15:34:57.595Z,22.40
2023-05-14T15:37:24.259Z,22.39
2023-05-14T15:39:50.625Z,22.32
2023-05-14T15:42:16.988Z,22.34
2023-05-14T15:44:43.337Z,22.23
2023-05-14T15:47:09.671Z,22.26
2023-05-14T15:49:35.981Z,22.21
2023-05-14T15:52:02.346Z,22.20
2023-05-14T15:54:28.770Z,22.06
2023-05-14T15:56:55.919Z,22.09
2023-05-14T15:59:22.225Z,22.02
2023-05-14T16:01:48.596Z,21.91
2023-05-14T16:04:14.906Z,21.84
2023-05-14T16:06:41.260Z,21.71
2023-05-14T16:09:08.165Z,21.61
2023-05-14T16:11:34.483Z,21.55
2023-05-14T16:14:00.813Z,21.48
2023-05-14T16:16:27.204Z,21.38
2023-05-14T16:18:53.599Z,21.38
2023-05-14T16:21:19.937Z,21.29
2023-05-14T16:23:46.281Z,21.28
2023-05-14T16:26:12.675Z,21.21
2023-05-14T16:28:39.002Z,21.10
2023-05-14T16:31:05.372Z,21.02
2023-05-14T16:33:31.849Z,20.97
2023-05-14T16:35:58.296Z,20.95
2023-05-14T16:38:24.639Z,20.77
2023-05-14T16:40:50.972Z,20.70
2023-05-14T16:43:17.267Z,20.60
2023-05-14T16:45:43.814Z,20.59
2023-05-14T16:48:10.226Z,20.56
2023-05-14T16:50:36.605Z,20.62
2023-05-14T16:53:02.962Z,20.64
2023-05-14T16:55:29.310Z,20.56
2023-05-14T16:57:55.601Z,20.46
2023-05-14T17:00:21.987Z,20.40
2023-05-14T17:02:48.359Z,20.36
2023-05-14T17:05:14.923Z,20.26
2023-05-14T17:07:41.268Z,20.10
2023-05-14T17:10:08.090Z,20.04
2023-05-14T17:12:34.508Z,20.00
2023-05-14T17:15:01.954Z,19.88
2023-05-14T17:17:30.083Z,19.77
2023-05-14T17:19:56.429Z,19.68
2023-05-14T17:22:22.752Z,19.59
2023-05-14T17:24:49.108Z,19.45
2023-05-14T17:27:16.653Z,19.45
2023-05-14T17:29:43.196Z,19.36
2023-05-14T17:32:09.632Z,19.20
2023-05-14T17:34:35.964Z,19.15
2023-05-14T17:37:02.319Z,18.92
2023-05-14T17:39:28.682Z,18.90
2023-05-14T17:41:55.047Z,18.85
2023-05-14T17:44:21.371Z,18.72
2023-05-14T17:46:47.780Z,18.60
2023-05-14T17:49:14.141Z,18.47
2023-05-14T17:51:40.465Z,18.32
2023-05-14T17:54:06.767Z,18.27
2023-05-14T17:56:33.378Z,18.06
2023-05-14T17:59:00.150Z,18.03
2023-05-14T18:01:26.564Z,17.85
2023-05-14T18:03:52.991Z,17.60
2023-05-14T18:06:19.431Z,17.47
2023-05-14T18:08:45.731Z,17.39
2023-05-14T18:11:12.141Z,17.37
2023-05-14T18:13:38.477Z,17.27
2023-05-14T18:16:05.144Z,17.09
2023-05-14T18:18:31.569Z,17.00
2023-05-14T18:20:57.903Z,16.84
2023-05-14T18:23:24.243Z,16.75
2023-05-14T18:25:51.014Z,16.64
2023-05-14T18:28:17.386Z,16.57
2023-05-14T18:30:43.789Z,16.48
2023-05-14T18:33:10.215Z,16.41
2023-05-14T18:35:36.700Z,16.37
2023-05-14T18:38:03.200Z,16.22
2023-05-14T18:40:30.051Z,16.04
2023-05-14T18:42:56.363Z,16.09
2023-05-14T18:45:23.020Z,15.98
2023-05-14T18:47:50.476Z,15.84
2023-05-14T18:50:16.933Z,15.73
2023-05-14T18:52:43.303Z,15.62
2023-05-14T18:55:09.636Z,15.58
2023-05-14T18:57:36.954Z,15.56
2023-05-14T19:00:03.623Z,15.47
2023-05-14T19:02:30.886Z,15.50
2023-05-14T19:04:57.281Z,15.41
2023-05-14T19:07:23.632Z,15.28
2023-05-14T19:09:50.360Z,15.18
2023-05-14T19:12:16.703Z,15.11
2023-05-14T19:14:43.080Z,15.13
2023-05-14T19:17:09.509Z,15.08
2023-05-14T19:19:35.848Z,15.00
2023-05-14T19:22:02.175Z,15.04
2023-05-14T19:24:28.476Z,14.93
2023-05-14T19:26:54.805Z,14.82
2023-05-14T19:29:21.133Z,14.76
2023-05-14T19:31:47.503Z,14.70
2023-05-14T19:34:13.924Z,14.61
2023-05-14T19:36:40.318Z,14.47
2023-05-14T19:39:06.680Z,14.40
2023-05-14T19:41:33.046Z,14.34
2023-05-14T19:43:59.348Z,14.29
2023-05-14T19:46:26.133Z,14.20
2023-05-14T19:48:52.527Z,14.14
2023-05-14T19:51:18.911Z,14.12
2023-05-14T19:53:45.237Z,14.10
2023-05-14T19:56:11.694Z,13.99
2023-05-14T19:58:38.029Z,13.92
2023-05-14T20:01:04.466Z,13.89
2023-05-14T20:03:31.892Z,13.82
2023-05-14T20:05:58.263Z,13.72
2023-05-14T20:08:24.737Z,13.57
2023-05-14T20:10:51.062Z,13.54
2023-05-14T20:13:17.387Z,13.53
2023-05-14T20:15:43.738Z,13.49
2023-05-14T20:18:10.093Z,13.45
2023-05-14T20:20:36.482Z,13.44
2023-05-14T20:23:02.801Z,13.31
2023-05-14T20:25:29.388Z,13.32
2023-05-14T20:27:55.809Z,13.25
2023-05-14T20:30:22.294Z,13.22
2023-05-14T20:32:48.756Z,13.15
2023-05-14T20:35:15.121Z,13.08
2023-05-14T20:37:41.419Z,13.00
2023-05-14T20:40:08.547Z,13.01
2023-05-14T20:42:34.894Z,12.94
2023-05-14T20:45:01.211Z,12.89
2023-05-14T20:47:27.592Z,12.80
2023-05-14T20:49:53.897Z,12.84
2023-05-14T20:52:20.210Z,12.72
2023-05-14T20:54:46.588Z,12.72
2023-05-14T20:57:13.094Z,12.67
2023-05-14T20:59:39.424Z,12.66
2023-05-14T21:02:05.893Z,12.66
2023-05-14T21:04:33.412Z,12.62
2023-05-14T21:07:00.253Z,12.59
2023-05-14T21:09:26.734Z,12.53
2023-05-14T21:11:54.060Z,12.50
2023-05-14T21:14:20.404Z,12.38
2023-05-14T21:16:47.022Z,12.45
2023-05-14T21:19:15.363Z,12.40
2023-05-14T21:21:41.855Z,12.31
2023-05-14T21:24:08.176Z,12.25
2023-05-14T21:26:36.202Z,12.23
2023-05-14T21:29:03.249Z,12.27
2023-05-14T21:31:29.668Z,12.23
2023-05-14T21:33:56.044Z,12.24
2023-05-14T21:36:22.644Z,12.25
2023-05-14T21:38:48.994Z,12.29
2023-05-14T21:41:15.305Z,12.27
2023-05-14T21:43:41.645Z,12.16
2023-05-14T21:46:08.051Z,12.14
2023-05-14T21:48:34.547Z,12.17
2023-05-14T21:51:00.992Z,12.04
2023-05-14T21:53:27.377Z,12.09
2023-05-14T21:55:53.765Z,11.94
2023-05-14T21:58:20.102Z,11.97
2023-05-14T22:00:46.591Z,11.97
2023-05-14T22:03:13.010Z,11.95
2023-05-14T22:05:39.459Z,11.96
2023-05-14T22:08:05.866Z,12.01
2023-05-14T22:10:32.221Z,11.97
2023-05-14T22:12:58.593Z,11.91
2023-05-14T22:15:25.225Z,11.87
2023-05-14T22:17:51.852Z,11.84
2023-05-14T22:20:18.271Z,11.76
2023-05-14T22:22:44.619Z,11.77
2023-05-14T22:25:11.065Z,11.73
2023-05-14T22:27:37.419Z,11.68
2023-05-14T22:30:04.142Z,11.65
2023-05-14T22:32:30.500Z,11.69
2023-05-14T22:34:56.833Z,11.69
2023-05-14T22:37:23.177Z,11.73
2023-05-14T22:39:50.105Z,11.75
2023-05-14T22:42:16.451Z,11.71
2023-05-14T22:44:42.794Z,11.66
2023-05-14T22:47:09.200Z,11.62
2023-05-14T22:49:35.587Z,11.75
2023-05-14T22:52:01.921Z,11.70
2023-05-14T22:54:28.279Z,11.60
2023-05-14T22:56:54.651Z,11.65
2023-05-14T22:59:22.754Z,11.65
2023-05-14T23:01:50.084Z,11.61
2023-05-14T23:04:16.664Z,11.58
2023-05-14T23:06:43.014Z,11.54
2023-05-14T23:09:09.366Z,11.55
2023-05-14T23:11:35.725Z,11.50
2023-05-14T23:14:02.056Z,11.49
2023-05-14T23:16:28.426Z,11.49
2023-05-14T23:18:55.569Z,11.39
2023-05-14T23:21:22.028Z,11.35
2023-05-14T23:23:48.387Z,11.33
2023-05-14T23:26:14.828Z,11.27
2023-05-14T23:28:41.250Z,11.25
2023-05-14T23:31:07.552Z,11.19
2023-05-14T23:33:33.858Z,11.11
2023-05-14T23:36:00.258Z,11.10
2023-05-14T23:38:27.013Z,11.01
2023-05-14T23:40:53.334Z,10.96
2023-05-14T23:43:19.681Z,10.94
2023-05-14T23:45:46.054Z,10.90
2023-05-14T23:48:12.457Z,10.93
2023-05-14T23:50:38.955Z,10.89
2023-05-14T23:53:05.359Z,10.82
2023-05-14T23:55:31.793Z,10.78
2023-05-14T23:57:58.180Z,10.83
